Time,TemperatureF,DewpointF,PressureIn,WindDirection,WindDirectionDegrees,WindSpeedMPH,WindSpeedGustMPH,Humidity,HourlyPrecipIn,Conditions,Clouds,dailyrainin,SoftwareType,DateUTC
2013-04-25 00:01:00,46.0,38.0,-100.00,ESE,110,6.0,8.0,73,-99.99,,,-99.99,,2013-04-25 07:01:00,
2013-04-25 00:10:00,44.0,38.0,-100.00,East,95,5.0,9.0,79,-99.99,,,-99.99,,2013-04-25 07:10:00,
2013-04-25 01:01:00,44.0,38.0,-100.00,East,95,5.0,9.0,79,-99.99,,,-99.99,,2013-04-25 08:01:00,
2013-04-25 01:10:00,43.0,37.0,-100.00,East,100,7.0,9.0,79,-99.99,,,-99.99,,2013-04-25 08:10:00,
2013-04-25 02:01:00,43.0,37.0,-100.00,East,100,7.0,9.0,79,-99.99,,,-99.99,,2013-04-25 09:01:00,
2013-04-25 02:10:00,43.0,37.0,-100.00,ESE,120,7.0,10.0,79,-99.99,,,-99.99,,2013-04-25 09:10:00,
2013-04-25 03:02:00,43.0,37.0,-100.00,ESE,120,7.0,10.0,79,-99.99,,,-99.99,,2013-04-25 10:02:00,
2013-04-25 03:10:00,40.0,37.0,-100.00,ENE,60,1.0,3.0,88,-99.99,,,-99.99,,2013-04-25 10:10:00,
2013-04-25 04:02:00,40.0,37.0,-100.00,ENE,60,1.0,3.0,88,-99.99,,,-99.99,,2013-04-25 11:02:00,
2013-04-25 04:10:00,41.0,37.0,-100.00,ESE,105,7.0,10.0,85,-99.99,,,-99.99,,2013-04-25 11:10:00,
2013-04-25 05:01:00,41.0,37.0,-100.00,ESE,105,7.0,10.0,85,-99.99,,,-99.99,,2013-04-25 12:01:00,
2013-04-25 05:10:00,40.0,37.0,-100.00,ESE,105,6.0,9.0,88,-99.99,,,-99.99,,2013-04-25 12:10:00,
2013-04-25 06:02:00,40.0,37.0,-100.00,ESE,105,6.0,9.0,88,-99.99,,,-99.99,,2013-04-25 13:02:00,
2013-04-25 06:10:00,39.0,36.0,-100.00,ESE,110,5.0,8.0,88,-99.99,,,-99.99,,2013-04-25 13:10:00,
2013-04-25 07:01:00,39.0,36.0,-100.00,ESE,110,5.0,8.0,88,-99.99,,,-99.99,,2013-04-25 14:01:00,
2013-04-25 07:10:00,40.0,37.0,-100.00,East,90,2.0,7.0,88,-99.99,,,-99.99,,2013-04-25 14:10:00,
2013-04-25 08:02:00,40.0,37.0,-100.00,East,90,2.0,7.0,88,-99.99,,,-99.99,,2013-04-25 15:02:00,
2013-04-25 08:10:00,46.0,40.0,-100.00,NNW,340,0.0,1.0,79,-99.99,,,-99.99,,2013-04-25 15:10:00,
2013-04-25 09:02:00,46.0,40.0,-100.00,NNW,340,0.0,1.0,79,-99.99,,,-99.99,,2013-04-25 16:02:00,
2013-04-25 09:10:00,58.0,42.0,-100.00,WNW,295,1.0,5.0,55,-99.99,,,-99.99,,2013-04-25 16:10:00,
2013-04-25 10:02:00,58.0,42.0,-100.00,WNW,295,1.0,5.0,55,-99.99,,,-99.99,,2013-04-25 17:02:00,
2013-04-25 10:10:00,64.0,38.0,-100.00,WSW,245,5.0,7.0,38,-99.99,,,-99.99,,2013-04-25 17:10:00,
2013-04-25 11:01:00,64.0,38.0,-100.00,WSW,245,5.0,7.0,38,-99.99,,,-99.99,,2013-04-25 18:01:00,
2013-04-25 11:10:00,65.0,38.0,-100.00,WSW,250,5.0,10.0,36,-99.99,,,-99.99,,2013-04-25 18:10:00,
2013-04-25 12:01:00,65.0,38.0,-100.00,WSW,250,5.0,10.0,36,-99.99,,,-99.99,,2013-04-25 19:01:00,
2013-04-25 12:10:00,69.0,40.0,-100.00,West,275,3.0,9.0,34,-99.99,,,-99.99,,2013-04-25 19:10:00,
2013-04-25 13:01:00,69.0,40.0,-100.00,West,275,3.0,9.0,34,-99.99,,,-99.99,,2013-04-25 20:01:00,
2013-04-25 13:10:00,70.0,39.0,-100.00,WSW,250,6.0,10.0,32,-99.99,,,-99.99,,2013-04-25 20:10:00,
2013-04-25 14:01:00,70.0,39.0,-100.00,WSW,250,6.0,10.0,32,-99.99,,,-99.99,,2013-04-25 21:01:00,
2013-04-25 14:10:00,71.0,38.0,-100.00,West,260,3.0,9.0,29,-99.99,,,-99.99,,2013-04-25 21:10:00,
2013-04-25 15:02:00,71.0,38.0,-100.00,West,260,3.0,9.0,29,-99.99,,,-99.99,,2013-04-25 22:02:00,
2013-04-25 15:10:00,72.0,41.0,-100.00,WSW,255,3.0,12.0,32,-99.99,,,-99.99,,2013-04-25 22:10:00,
2013-04-25 16:02:00,72.0,41.0,-100.00,WSW,255,3.0,12.0,32,-99.99,,,-99.99,,2013-04-25 23:02:00,
2013-04-25 16:10:00,73.0,39.0,-100.00,West,270,5.0,9.0,29,-99.99,,,-99.99,,2013-04-25 23:10:00,
2013-04-25 17:01:00,73.0,39.0,-100.00,West,270,5.0,9.0,29,-99.99,,,-99.99,,2013-04-26 00:01:00,
2013-04-25 17:10:00,73.0,40.0,-100.00,SW,225,3.0,7.0,30,-99.99,,,-99.99,,2013-04-26 00:10:00,
2013-04-25 18:01:00,73.0,40.0,-100.00,SW,225,3.0,7.0,30,-99.99,,,-99.99,,2013-04-26 01:01:00,
2013-04-25 18:10:00,70.0,40.0,-100.00,WSW,250,3.0,6.0,33,-99.99,,,-99.99,,2013-04-26 01:10:00,
2013-04-25 19:01:00,70.0,40.0,-100.00,WSW,250,3.0,6.0,33,-99.99,,,-99.99,,2013-04-26 02:01:00,
2013-04-25 19:10:00,63.0,47.0,-100.00,East,100,3.0,5.0,55,-99.99,,,-99.99,,2013-04-26 02:10:00,
2013-04-25 20:01:00,63.0,47.0,-100.00,East,100,3.0,5.0,55,-99.99,,,-99.99,,2013-04-26 03:01:00,
2013-04-25 20:10:00,57.0,46.0,-100.00,ESE,105,1.0,3.0,66,-99.99,,,-99.99,,2013-04-26 03:10:00,
2013-04-25 21:02:00,57.0,46.0,-100.00,ESE,105,1.0,3.0,66,-99.99,,,-99.99,,2013-04-26 04:02:00,
2013-04-25 21:10:00,54.0,46.0,-100.00,ESE,110,2.0,6.0,74,-99.99,,,-99.99,,2013-04-26 04:10:00,
2013-04-25 22:02:00,54.0,46.0,-100.00,ESE,110,2.0,6.0,74,-99.99,,,-99.99,,2013-04-26 05:02:00,
2013-04-25 22:10:00,53.0,44.0,-100.00,ESE,110,7.0,9.0,71,-99.99,,,-99.99,,2013-04-26 05:10:00,
2013-04-25 23:02:00,53.0,44.0,-100.00,ESE,110,7.0,9.0,71,-99.99,,,-99.99,,2013-04-26 06:02:00,
2013-04-25 23:10:00,49.0,44.0,-100.00,East,85,2.0,5.0,82,-99.99,,,-99.99,,2013-04-26 06:10:00,